sensor_id;sensor_type;location;lat;lon;timestamp;P1;durP1;ratioP1;P2;durP2;ratioP2
44446;SDS011;30152;52.066;5.358;2022-08-18T05:48:41;35.72;;;23.45;;
44446;SDS011;30152;52.066;5.358;2022-08-18T05:51:13;33.50;;;22.33;;
44446;SDS011;30152;52.066;5.358;2022-08-18T05:53:41;32.15;;;21.42;;
44446;SDS011;30152;52.066;5.358;2022-08-18T05:56:27;27.35;;;20.65;;
44446;SDS011;30152;52.066;5.358;2022-08-18T05:59:12;26.33;;;19.70;;
44446;SDS011;30152;52.066;5.358;2022-08-18T06:01:40;26.95;;;18.80;;
44446;SDS011;30152;52.066;5.358;2022-08-18T06:04:08;18.23;;;14.38;;
44446;SDS011;30152;52.066;5.358;2022-08-18T06:06:38;17.42;;;13.40;;
44446;SDS011;30152;52.066;5.358;2022-08-18T06:09:23;16.35;;;12.48;;
44446;SDS011;30152;52.066;5.358;2022-08-18T06:11:51;16.67;;;12.35;;
44446;SDS011;30152;52.066;5.358;2022-08-18T06:14:18;17.33;;;11.43;;
44446;SDS011;30152;52.066;5.358;2022-08-18T06:19:47;21.50;;;12.65;;
44446;SDS011;30152;52.066;5.358;2022-08-18T06:22:27;16.73;;;11.50;;
44446;SDS011;30152;52.066;5.358;2022-08-18T06:27:54;17.15;;;12.60;;
44446;SDS011;30152;52.066;5.358;2022-08-18T06:30:45;18.73;;;12.88;;
44446;SDS011;30152;52.066;5.358;2022-08-18T06:36:11;19.40;;;13.75;;
44446;SDS011;30152;52.066;5.358;2022-08-18T06:41:42;17.92;;;12.27;;
44446;SDS011;30152;52.066;5.358;2022-08-18T06:44:16;20.92;;;12.95;;
44446;SDS011;30152;52.066;5.358;2022-08-18T06:46:54;18.20;;;11.80;;
44446;SDS011;30152;52.066;5.358;2022-08-18T06:49:31;15.80;;;11.85;;
44446;SDS011;30152;52.066;5.358;2022-08-18T06:55:08;16.30;;;10.95;;
44446;SDS011;30152;52.066;5.358;2022-08-18T06:57:40;13.32;;;10.57;;
44446;SDS011;30152;52.066;5.358;2022-08-18T07:02:48;16.15;;;11.57;;
44446;SDS011;30152;52.066;5.358;2022-08-18T07:05:35;15.32;;;11.50;;
44446;SDS011;30152;52.066;5.358;2022-08-18T07:08:19;16.85;;;11.52;;
44446;SDS011;30152;52.066;5.358;2022-08-18T07:11:17;16.10;;;11.13;;
44446;SDS011;30152;52.066;5.358;2022-08-18T07:13:49;15.73;;;11.50;;
44446;SDS011;30152;52.066;5.358;2022-08-18T07:16:21;14.90;;;10.98;;
44446;SDS011;30152;52.066;5.358;2022-08-18T07:18:49;16.13;;;10.57;;
44446;SDS011;30152;52.066;5.358;2022-08-18T07:21:26;12.20;;;10.00;;
44446;SDS011;30152;52.066;5.358;2022-08-18T07:24:01;15.23;;;10.80;;
44446;SDS011;30152;52.066;5.358;2022-08-18T07:30:04;11.07;;;8.50;;
44446;SDS011;30152;52.066;5.358;2022-08-18T07:32:31;12.77;;;8.10;;
44446;SDS011;30152;52.066;5.358;2022-08-18T07:35:08;11.85;;;8.05;;
44446;SDS011;30152;52.066;5.358;2022-08-18T07:37:39;12.23;;;8.27;;
44446;SDS011;30152;52.066;5.358;2022-08-18T07:40:19;10.45;;;7.78;;
44446;SDS011;30152;52.066;5.358;2022-08-18T07:48:05;14.20;;;7.80;;
44446;SDS011;30152;52.066;5.358;2022-08-18T07:53:31;10.52;;;8.25;;
44446;SDS011;30152;52.066;5.358;2022-08-18T07:56:27;14.07;;;8.43;;
44446;SDS011;30152;52.066;5.358;2022-08-18T08:07:11;11.70;;;6.45;;
44446;SDS011;30152;52.066;5.358;2022-08-18T08:09:55;9.60;;;6.30;;
44446;SDS011;30152;52.066;5.358;2022-08-18T08:12:41;10.70;;;5.85;;
44446;SDS011;30152;52.066;5.358;2022-08-18T08:20:51;9.65;;;6.78;;
44446;SDS011;30152;52.066;5.358;2022-08-18T08:23:39;11.77;;;7.10;;
44446;SDS011;30152;52.066;5.358;2022-08-18T08:34:58;11.50;;;6.32;;
44446;SDS011;30152;52.066;5.358;2022-08-18T08:39:59;9.30;;;5.05;;
44446;SDS011;30152;52.066;5.358;2022-08-18T08:42:33;15.52;;;6.43;;
44446;SDS011;30152;52.066;5.358;2022-08-18T08:45:20;11.15;;;5.95;;
44446;SDS011;30152;52.066;5.358;2022-08-18T08:50:42;7.63;;;5.35;;
44446;SDS011;30152;52.066;5.358;2022-08-18T08:53:55;9.40;;;5.57;;
44446;SDS011;30152;52.066;5.358;2022-08-18T08:56:10;14.23;;;6.30;;
44446;SDS011;30152;52.066;5.358;2022-08-18T08:58:41;9.05;;;5.00;;
44446;SDS011;30152;52.066;5.358;2022-08-18T09:01:28;12.48;;;5.55;;
44446;SDS011;30152;52.066;5.358;2022-08-18T09:04:22;9.82;;;4.43;;
44446;SDS011;30152;52.066;5.358;2022-08-18T09:07:21;8.63;;;4.88;;
44446;SDS011;30152;52.066;5.358;2022-08-18T09:12:34;10.45;;;4.80;;
44446;SDS011;30152;52.066;5.358;2022-08-18T09:17:42;7.63;;;4.43;;
44446;SDS011;30152;52.066;5.358;2022-08-18T09:23:03;8.65;;;4.47;;
44446;SDS011;30152;52.066;5.358;2022-08-18T09:28:08;8.05;;;4.65;;
44446;SDS011;30152;52.066;5.358;2022-08-18T09:38:56;7.50;;;4.05;;
44446;SDS011;30152;52.066;5.358;2022-08-18T09:47:05;7.15;;;4.82;;
44446;SDS011;30152;52.066;5.358;2022-08-18T09:49:40;7.07;;;4.10;;
44446;SDS011;30152;52.066;5.358;2022-08-18T09:55:51;7.72;;;4.35;;
44446;SDS011;30152;52.066;5.358;2022-08-18T09:57:42;9.48;;;4.35;;
44446;SDS011;30152;52.066;5.358;2022-08-18T10:15:28;7.75;;;4.00;;
44446;SDS011;30152;52.066;5.358;2022-08-18T10:20:58;8.15;;;4.47;;
44446;SDS011;30152;52.066;5.358;2022-08-18T10:23:50;9.55;;;4.38;;
44446;SDS011;30152;52.066;5.358;2022-08-18T10:29:02;8.07;;;3.47;;
44446;SDS011;30152;52.066;5.358;2022-08-18T10:31:30;9.75;;;4.03;;
44446;SDS011;30152;52.066;5.358;2022-08-18T10:34:14;11.20;;;3.60;;
44446;SDS011;30152;52.066;5.358;2022-08-18T10:42:24;6.78;;;3.30;;
44446;SDS011;30152;52.066;5.358;2022-08-18T10:45:11;9.73;;;3.72;;
44446;SDS011;30152;52.066;5.358;2022-08-18T10:47:36;10.00;;;3.80;;
44446;SDS011;30152;52.066;5.358;2022-08-18T10:50:04;9.07;;;4.05;;
44446;SDS011;30152;52.066;5.358;2022-08-18T10:58:15;7.70;;;3.40;;
44446;SDS011;30152;52.066;5.358;2022-08-18T11:00:59;5.70;;;3.42;;
44446;SDS011;30152;52.066;5.358;2022-08-18T11:06:29;6.32;;;3.40;;
44446;SDS011;30152;52.066;5.358;2022-08-18T11:11:31;6.35;;;3.20;;
44446;SDS011;30152;52.066;5.358;2022-08-18T11:14:06;7.30;;;3.70;;
44446;SDS011;30152;52.066;5.358;2022-08-18T11:16:48;9.57;;;3.88;;
44446;SDS011;30152;52.066;5.358;2022-08-18T11:19:24;7.30;;;3.60;;
44446;SDS011;30152;52.066;5.358;2022-08-18T11:21:50;6.90;;;3.67;;
44446;SDS011;30152;52.066;5.358;2022-08-18T11:32:43;6.05;;;2.63;;
44446;SDS011;30152;52.066;5.358;2022-08-18T11:35:05;7.20;;;2.70;;
44446;SDS011;30152;52.066;5.358;2022-08-18T11:40:00;4.78;;;2.55;;
44446;SDS011;30152;52.066;5.358;2022-08-18T11:42:32;5.82;;;2.95;;
44446;SDS011;30152;52.066;5.358;2022-08-18T11:45:18;6.18;;;3.00;;
44446;SDS011;30152;52.066;5.358;2022-08-18T11:50:45;6.05;;;2.70;;
44446;SDS011;30152;52.066;5.358;2022-08-18T11:53:25;9.48;;;3.30;;
44446;SDS011;30152;52.066;5.358;2022-08-18T11:56:05;6.60;;;3.03;;
44446;SDS011;30152;52.066;5.358;2022-08-18T11:58:43;9.63;;;2.97;;
44446;SDS011;30152;52.066;5.358;2022-08-18T12:12:12;6.25;;;2.90;;
44446;SDS011;30152;52.066;5.358;2022-08-18T12:14:51;6.90;;;3.28;;
44446;SDS011;30152;52.066;5.358;2022-08-18T12:17:29;8.18;;;3.35;;
44446;SDS011;30152;52.066;5.358;2022-08-18T12:19:55;8.88;;;3.45;;
44446;SDS011;30152;52.066;5.358;2022-08-18T12:22:31;5.53;;;3.05;;
44446;SDS011;30152;52.066;5.358;2022-08-18T12:24:58;5.28;;;3.20;;
44446;SDS011;30152;52.066;5.358;2022-08-18T12:27:24;6.03;;;3.35;;
44446;SDS011;30152;52.066;5.358;2022-08-18T12:29:52;6.22;;;3.35;;
44446;SDS011;30152;52.066;5.358;2022-08-18T12:32:23;9.48;;;3.25;;
44446;SDS011;30152;52.066;5.358;2022-08-18T12:34:50;5.47;;;2.75;;
44446;SDS011;30152;52.066;5.358;2022-08-18T12:37:18;11.70;;;3.28;;
44446;SDS011;30152;52.066;5.358;2022-08-18T12:39:48;6.25;;;3.10;;
44446;SDS011;30152;52.066;5.358;2022-08-18T12:42:14;7.20;;;2.78;;
44446;SDS011;30152;52.066;5.358;2022-08-18T12:44:41;9.07;;;3.33;;
44446;SDS011;30152;52.066;5.358;2022-08-18T12:47:09;7.53;;;3.20;;
44446;SDS011;30152;52.066;5.358;2022-08-18T12:49:37;7.25;;;2.75;;
44446;SDS011;30152;52.066;5.358;2022-08-18T12:52:03;6.95;;;2.92;;
44446;SDS011;30152;52.066;5.358;2022-08-18T12:54:30;6.90;;;2.85;;
44446;SDS011;30152;52.066;5.358;2022-08-18T12:56:56;6.45;;;2.97;;
44446;SDS011;30152;52.066;5.358;2022-08-18T12:59:22;6.35;;;2.47;;
44446;SDS011;30152;52.066;5.358;2022-08-18T13:01:48;6.65;;;3.00;;
44446;SDS011;30152;52.066;5.358;2022-08-18T13:04:14;5.50;;;2.75;;
44446;SDS011;30152;52.066;5.358;2022-08-18T13:06:50;7.07;;;3.03;;
44446;SDS011;30152;52.066;5.358;2022-08-18T13:09:18;6.35;;;3.08;;
44446;SDS011;30152;52.066;5.358;2022-08-18T13:11:44;7.15;;;2.60;;
44446;SDS011;30152;52.066;5.358;2022-08-18T13:14:10;6.50;;;2.78;;
44446;SDS011;30152;52.066;5.358;2022-08-18T13:16:38;11.10;;;2.70;;
44446;SDS011;30152;52.066;5.358;2022-08-18T13:19:08;7.57;;;2.70;;
44446;SDS011;30152;52.066;5.358;2022-08-18T13:21:34;6.15;;;2.60;;
44446;SDS011;30152;52.066;5.358;2022-08-18T13:24:00;5.65;;;2.90;;
44446;SDS011;30152;52.066;5.358;2022-08-18T13:26:27;4.95;;;2.60;;
44446;SDS011;30152;52.066;5.358;2022-08-18T13:28:55;6.68;;;2.80;;
44446;SDS011;30152;52.066;5.358;2022-08-18T13:31:22;6.90;;;2.70;;
44446;SDS011;30152;52.066;5.358;2022-08-18T13:33:48;4.53;;;2.00;;
44446;SDS011;30152;52.066;5.358;2022-08-18T13:36:15;6.53;;;2.75;;
44446;SDS011;30152;52.066;5.358;2022-08-18T13:38:40;6.07;;;2.17;;
44446;SDS011;30152;52.066;5.358;2022-08-18T13:41:07;5.07;;;2.45;;
44446;SDS011;30152;52.066;5.358;2022-08-18T13:43:36;5.20;;;2.58;;
44446;SDS011;30152;52.066;5.358;2022-08-18T13:46:05;4.53;;;2.42;;
44446;SDS011;30152;52.066;5.358;2022-08-18T13:48:32;4.30;;;2.20;;
44446;SDS011;30152;52.066;5.358;2022-08-18T13:50:58;6.10;;;2.75;;
44446;SDS011;30152;52.066;5.358;2022-08-18T13:53:26;7.35;;;2.80;;
44446;SDS011;30152;52.066;5.358;2022-08-18T13:55:52;6.82;;;3.10;;
44446;SDS011;30152;52.066;5.358;2022-08-18T13:58:18;5.75;;;2.78;;
44446;SDS011;30152;52.066;5.358;2022-08-18T14:00:44;7.10;;;3.08;;
44446;SDS011;30152;52.066;5.358;2022-08-18T14:03:10;6.25;;;2.50;;
44446;SDS011;30152;52.066;5.358;2022-08-18T14:05:36;5.68;;;2.55;;
44446;SDS011;30152;52.066;5.358;2022-08-18T14:08:02;5.30;;;2.10;;
44446;SDS011;30152;52.066;5.358;2022-08-18T14:10:28;8.52;;;2.83;;
44446;SDS011;30152;52.066;5.358;2022-08-18T14:12:55;4.68;;;2.10;;
44446;SDS011;30152;52.066;5.358;2022-08-18T14:15:24;5.80;;;2.60;;
44446;SDS011;30152;52.066;5.358;2022-08-18T14:17:51;7.38;;;2.80;;
44446;SDS011;30152;52.066;5.358;2022-08-18T14:20:17;9.20;;;3.20;;
44446;SDS011;30152;52.066;5.358;2022-08-18T14:23:01;5.78;;;2.47;;
44446;SDS011;30152;52.066;5.358;2022-08-18T14:25:46;7.32;;;2.78;;
44446;SDS011;30152;52.066;5.358;2022-08-18T14:30:57;6.18;;;2.28;;
44446;SDS011;30152;52.066;5.358;2022-08-18T14:33:24;5.38;;;2.53;;
44446;SDS011;30152;52.066;5.358;2022-08-18T14:35:52;5.63;;;2.15;;
44446;SDS011;30152;52.066;5.358;2022-08-18T14:38:18;7.72;;;2.38;;
44446;SDS011;30152;52.066;5.358;2022-08-18T14:40:44;4.55;;;2.30;;
44446;SDS011;30152;52.066;5.358;2022-08-18T14:43:11;6.85;;;2.67;;
44446;SDS011;30152;52.066;5.358;2022-08-18T14:45:38;6.32;;;2.63;;
44446;SDS011;30152;52.066;5.358;2022-08-18T14:48:09;7.88;;;2.10;;
44446;SDS011;30152;52.066;5.358;2022-08-18T14:50:35;5.88;;;2.17;;
44446;SDS011;30152;52.066;5.358;2022-08-18T14:53:01;8.48;;;2.63;;
44446;SDS011;30152;52.066;5.358;2022-08-18T14:55:27;7.80;;;2.53;;
44446;SDS011;30152;52.066;5.358;2022-08-18T14:57:53;7.72;;;2.45;;
44446;SDS011;30152;52.066;5.358;2022-08-18T15:00:19;4.78;;;2.08;;
44446;SDS011;30152;52.066;5.358;2022-08-18T15:02:46;5.65;;;2.33;;
44446;SDS011;30152;52.066;5.358;2022-08-18T15:05:13;6.95;;;2.40;;
44446;SDS011;30152;52.066;5.358;2022-08-18T15:07:39;7.45;;;3.10;;
44446;SDS011;30152;52.066;5.358;2022-08-18T15:10:06;9.05;;;2.80;;
44446;SDS011;30152;52.066;5.358;2022-08-18T15:12:32;6.00;;;2.58;;
44446;SDS011;30152;52.066;5.358;2022-08-18T15:14:58;6.60;;;2.40;;
44446;SDS011;30152;52.066;5.358;2022-08-18T15:17:25;5.07;;;1.83;;
44446;SDS011;30152;52.066;5.358;2022-08-18T15:19:51;4.53;;;2.25;;
44446;SDS011;30152;52.066;5.358;2022-08-18T15:22:17;5.00;;;2.00;;
44446;SDS011;30152;52.066;5.358;2022-08-18T15:25:03;4.22;;;2.08;;
44446;SDS011;30152;52.066;5.358;2022-08-18T15:27:48;7.55;;;2.33;;
44446;SDS011;30152;52.066;5.358;2022-08-18T15:30:14;4.95;;;2.00;;
44446;SDS011;30152;52.066;5.358;2022-08-18T15:32:43;5.78;;;2.13;;
44446;SDS011;30152;52.066;5.358;2022-08-18T15:35:10;5.15;;;1.83;;
44446;SDS011;30152;52.066;5.358;2022-08-18T15:37:36;4.25;;;1.67;;
44446;SDS011;30152;52.066;5.358;2022-08-18T15:40:08;5.43;;;2.00;;
44446;SDS011;30152;52.066;5.358;2022-08-18T15:42:42;6.15;;;2.22;;
44446;SDS011;30152;52.066;5.358;2022-08-18T15:45:11;5.55;;;2.00;;
44446;SDS011;30152;52.066;5.358;2022-08-18T15:47:39;6.15;;;2.00;;
44446;SDS011;30152;52.066;5.358;2022-08-18T15:50:06;4.30;;;1.90;;
44446;SDS011;30152;52.066;5.358;2022-08-18T15:52:32;5.88;;;2.00;;
44446;SDS011;30152;52.066;5.358;2022-08-18T15:55:01;4.82;;;1.92;;
44446;SDS011;30152;52.066;5.358;2022-08-18T15:57:27;6.90;;;2.05;;
44446;SDS011;30152;52.066;5.358;2022-08-18T15:59:54;3.33;;;1.45;;
44446;SDS011;30152;52.066;5.358;2022-08-18T16:02:20;6.18;;;2.40;;
44446;SDS011;30152;52.066;5.358;2022-08-18T16:04:48;6.57;;;2.00;;
44446;SDS011;30152;52.066;5.358;2022-08-18T16:07:14;5.28;;;2.15;;
44446;SDS011;30152;52.066;5.358;2022-08-18T16:09:40;5.90;;;1.92;;
44446;SDS011;30152;52.066;5.358;2022-08-18T16:12:09;5.85;;;1.98;;
44446;SDS011;30152;52.066;5.358;2022-08-18T16:14:36;5.90;;;2.10;;
44446;SDS011;30152;52.066;5.358;2022-08-18T16:17:02;5.35;;;2.05;;
44446;SDS011;30152;52.066;5.358;2022-08-18T16:19:28;5.05;;;2.22;;
44446;SDS011;30152;52.066;5.358;2022-08-18T16:21:54;4.90;;;1.95;;
44446;SDS011;30152;52.066;5.358;2022-08-18T16:24:21;4.80;;;1.90;;
44446;SDS011;30152;52.066;5.358;2022-08-18T16:26:47;5.57;;;2.53;;
44446;SDS011;30152;52.066;5.358;2022-08-18T16:29:15;6.57;;;2.30;;
44446;SDS011;30152;52.066;5.358;2022-08-18T16:31:41;7.35;;;2.63;;
44446;SDS011;30152;52.066;5.358;2022-08-18T16:34:07;4.93;;;2.40;;
44446;SDS011;30152;52.066;5.358;2022-08-18T16:36:33;4.60;;;2.20;;
44446;SDS011;30152;52.066;5.358;2022-08-18T16:38:59;7.63;;;1.83;;
44446;SDS011;30152;52.066;5.358;2022-08-18T16:41:25;4.80;;;1.95;;
44446;SDS011;30152;52.066;5.358;2022-08-18T16:43:51;4.88;;;2.05;;
44446;SDS011;30152;52.066;5.358;2022-08-18T16:46:21;5.90;;;2.53;;
44446;SDS011;30152;52.066;5.358;2022-08-18T16:48:49;4.90;;;2.13;;
44446;SDS011;30152;52.066;5.358;2022-08-18T16:51:16;5.75;;;1.80;;
44446;SDS011;30152;52.066;5.358;2022-08-18T16:53:43;3.65;;;1.48;;
44446;SDS011;30152;52.066;5.358;2022-08-18T16:56:14;4.97;;;2.05;;
44446;SDS011;30152;52.066;5.358;2022-08-18T16:58:41;9.52;;;2.92;;
44446;SDS011;30152;52.066;5.358;2022-08-18T17:01:25;5.57;;;2.38;;
44446;SDS011;30152;52.066;5.358;2022-08-18T17:04:10;4.63;;;2.13;;
44446;SDS011;30152;52.066;5.358;2022-08-18T17:06:37;6.90;;;2.20;;
44446;SDS011;30152;52.066;5.358;2022-08-18T17:09:03;5.55;;;2.00;;
44446;SDS011;30152;52.066;5.358;2022-08-18T17:11:30;8.77;;;1.98;;
44446;SDS011;30152;52.066;5.358;2022-08-18T17:13:57;5.95;;;1.98;;
44446;SDS011;30152;52.066;5.358;2022-08-18T17:16:24;5.85;;;1.85;;
44446;SDS011;30152;52.066;5.358;2022-08-18T17:18:50;4.68;;;1.90;;
44446;SDS011;30152;52.066;5.358;2022-08-18T17:21:18;9.20;;;2.47;;
44446;SDS011;30152;52.066;5.358;2022-08-18T17:23:45;10.60;;;2.00;;
44446;SDS011;30152;52.066;5.358;2022-08-18T17:26:13;4.38;;;2.10;;
44446;SDS011;30152;52.066;5.358;2022-08-18T17:28:42;5.82;;;2.15;;
44446;SDS011;30152;52.066;5.358;2022-08-18T17:31:09;4.95;;;2.05;;
44446;SDS011;30152;52.066;5.358;2022-08-18T17:33:36;5.22;;;1.90;;
44446;SDS011;30152;52.066;5.358;2022-08-18T17:36:04;5.65;;;2.22;;
44446;SDS011;30152;52.066;5.358;2022-08-18T17:38:42;5.45;;;2.42;;
44446;SDS011;30152;52.066;5.358;2022-08-18T17:41:08;6.85;;;2.40;;
44446;SDS011;30152;52.066;5.358;2022-08-18T17:43:36;6.80;;;2.00;;
44446;SDS011;30152;52.066;5.358;2022-08-18T17:51:01;5.45;;;2.25;;
44446;SDS011;30152;52.066;5.358;2022-08-18T17:53:47;4.45;;;2.08;;
44446;SDS011;30152;52.066;5.358;2022-08-18T17:56:15;6.82;;;2.10;;
44446;SDS011;30152;52.066;5.358;2022-08-18T18:01:13;7.15;;;2.20;;
44446;SDS011;30152;52.066;5.358;2022-08-18T18:03:41;7.97;;;2.10;;
44446;SDS011;30152;52.066;5.358;2022-08-18T18:06:08;6.63;;;2.25;;
44446;SDS011;30152;52.066;5.358;2022-08-18T18:14:22;5.72;;;2.28;;
44446;SDS011;30152;52.066;5.358;2022-08-18T18:19:25;5.47;;;2.00;;
44446;SDS011;30152;52.066;5.358;2022-08-18T18:22:06;5.32;;;2.20;;
44446;SDS011;30152;52.066;5.358;2022-08-18T18:24:36;6.15;;;2.13;;
44446;SDS011;30152;52.066;5.358;2022-08-18T18:30:00;6.97;;;2.28;;
44446;SDS011;30152;52.066;5.358;2022-08-18T18:32:29;4.57;;;2.00;;
44446;SDS011;30152;52.066;5.358;2022-08-18T18:35:12;5.32;;;2.47;;
44446;SDS011;30152;52.066;5.358;2022-08-18T18:37:49;6.45;;;2.20;;
44446;SDS011;30152;52.066;5.358;2022-08-18T18:40:36;7.65;;;2.30;;
44446;SDS011;30152;52.066;5.358;2022-08-18T18:43:16;5.40;;;2.75;;
44446;SDS011;30152;52.066;5.358;2022-08-18T18:45:42;7.50;;;2.72;;
44446;SDS011;30152;52.066;5.358;2022-08-18T18:48:21;6.65;;;2.90;;
44446;SDS011;30152;52.066;5.358;2022-08-18T18:51:10;8.00;;;2.60;;
44446;SDS011;30152;52.066;5.358;2022-08-18T18:53:47;7.10;;;2.47;;
44446;SDS011;30152;52.066;5.358;2022-08-18T18:56:24;5.20;;;2.85;;
44446;SDS011;30152;52.066;5.358;2022-08-18T18:58:54;6.50;;;2.42;;
44446;SDS011;30152;52.066;5.358;2022-08-18T19:01:37;6.55;;;2.45;;
44446;SDS011;30152;52.066;5.358;2022-08-18T19:04:31;6.32;;;2.58;;
44446;SDS011;30152;52.066;5.358;2022-08-18T19:06:55;7.95;;;2.72;;
44446;SDS011;30152;52.066;5.358;2022-08-18T19:09:25;6.25;;;2.97;;
44446;SDS011;30152;52.066;5.358;2022-08-18T19:11:58;8.55;;;3.00;;
44446;SDS011;30152;52.066;5.358;2022-08-18T19:14:27;6.18;;;2.90;;
44446;SDS011;30152;52.066;5.358;2022-08-18T19:16:59;7.43;;;2.88;;
44446;SDS011;30152;52.066;5.358;2022-08-18T19:19:33;5.78;;;2.53;;
44446;SDS011;30152;52.066;5.358;2022-08-18T19:24:33;7.05;;;2.97;;
44446;SDS011;30152;52.066;5.358;2022-08-18T19:27:02;8.20;;;2.95;;
44446;SDS011;30152;52.066;5.358;2022-08-18T19:29:29;6.82;;;3.08;;
44446;SDS011;30152;52.066;5.358;2022-08-18T19:32:04;6.30;;;3.17;;
44446;SDS011;30152;52.066;5.358;2022-08-18T19:34:32;5.15;;;2.90;;
44446;SDS011;30152;52.066;5.358;2022-08-18T19:37:01;8.65;;;2.90;;
44446;SDS011;30152;52.066;5.358;2022-08-18T19:39:32;9.45;;;3.25;;
44446;SDS011;30152;52.066;5.358;2022-08-18T19:42:08;5.50;;;3.25;;
44446;SDS011;30152;52.066;5.358;2022-08-18T19:44:40;7.13;;;3.40;;
44446;SDS011;30152;52.066;5.358;2022-08-18T19:50:03;6.30;;;3.17;;
44446;SDS011;30152;52.066;5.358;2022-08-18T19:52:33;7.10;;;3.58;;
44446;SDS011;30152;52.066;5.358;2022-08-18T20:10:52;7.65;;;4.88;;
44446;SDS011;30152;52.066;5.358;2022-08-18T20:15:59;8.23;;;4.03;;
44446;SDS011;30152;52.066;5.358;2022-08-18T20:18:48;9.05;;;4.25;;
44446;SDS011;30152;52.066;5.358;2022-08-18T20:29:04;8.23;;;5.00;;
44446;SDS011;30152;52.066;5.358;2022-08-18T20:34:22;8.40;;;4.38;;
44446;SDS011;30152;52.066;5.358;2022-08-18T20:36:49;7.40;;;4.43;;
44446;SDS011;30152;52.066;5.358;2022-08-18T20:39:29;7.20;;;4.22;;
44446;SDS011;30152;52.066;5.358;2022-08-18T20:41:56;7.60;;;4.30;;
44446;SDS011;30152;52.066;5.358;2022-08-18T20:51:58;7.50;;;5.05;;
44446;SDS011;30152;52.066;5.358;2022-08-18T20:57:10;7.32;;;4.60;;
44446;SDS011;30152;52.066;5.358;2022-08-18T20:59:39;12.27;;;4.68;;
44446;SDS011;30152;52.066;5.358;2022-08-18T21:02:22;8.80;;;5.40;;
44446;SDS011;30152;52.066;5.358;2022-08-18T21:04:49;9.55;;;5.70;;
44446;SDS011;30152;52.066;5.358;2022-08-18T21:07:24;11.60;;;6.18;;
44446;SDS011;30152;52.066;5.358;2022-08-18T21:12:20;9.55;;;5.80;;
44446;SDS011;30152;52.066;5.358;2022-08-18T21:14:51;11.82;;;6.03;;
44446;SDS011;30152;52.066;5.358;2022-08-18T21:17:22;10.20;;;6.10;;
44446;SDS011;30152;52.066;5.358;2022-08-18T21:19:50;8.25;;;5.18;;
